sensor_id;sensor_type;location;lat;lon;timestamp;P1;durP1;ratioP1;P2;durP2;ratioP2
75689;SDS011;64303;53.118;9.044;2022-11-25T00:00:44;39.08;;;16.20;;
75689;SDS011;64303;53.118;9.044;2022-11-25T00:03:21;34.50;;;16.25;;
75689;SDS011;64303;53.118;9.044;2022-11-25T00:05:48;33.83;;;14.70;;
75689;SDS011;64303;53.118;9.044;2022-11-25T00:08:14;30.20;;;13.82;;
75689;SDS011;64303;53.118;9.044;2022-11-25T00:10:41;37.30;;;15.30;;
75689;SDS011;64303;53.118;9.044;2022-11-25T00:13:08;36.55;;;17.45;;
75689;SDS011;64303;53.118;9.044;2022-11-25T00:15:34;26.88;;;20.58;;
75689;SDS011;64303;53.118;9.044;2022-11-25T00:18:01;30.02;;;14.85;;
75689;SDS011;64303;53.118;9.044;2022-11-25T00:20:29;26.35;;;15.18;;
75689;SDS011;64303;53.118;9.044;2022-11-25T00:22:55;32.50;;;15.15;;
75689;SDS011;64303;53.118;9.044;2022-11-25T00:25:22;25.70;;;14.43;;
75689;SDS011;64303;53.118;9.044;2022-11-25T00:27:50;30.80;;;14.77;;
75689;SDS011;64303;53.118;9.044;2022-11-25T00:32:44;19.90;;;12.55;;
75689;SDS011;64303;53.118;9.044;2022-11-25T00:35:10;25.13;;;14.00;;
75689;SDS011;64303;53.118;9.044;2022-11-25T00:37:40;26.35;;;13.85;;
75689;SDS011;64303;53.118;9.044;2022-11-25T00:40:07;25.17;;;13.30;;
75689;SDS011;64303;53.118;9.044;2022-11-25T00:42:34;22.00;;;15.05;;
75689;SDS011;64303;53.118;9.044;2022-11-25T00:45:18;30.27;;;12.80;;
75689;SDS011;64303;53.118;9.044;2022-11-25T00:47:45;28.38;;;16.48;;
75689;SDS011;64303;53.118;9.044;2022-11-25T00:50:12;22.58;;;13.77;;
75689;SDS011;64303;53.118;9.044;2022-11-25T00:52:40;28.67;;;15.30;;
75689;SDS011;64303;53.118;9.044;2022-11-25T00:55:07;26.10;;;14.15;;
75689;SDS011;64303;53.118;9.044;2022-11-25T00:57:34;23.17;;;14.02;;
75689;SDS011;64303;53.118;9.044;2022-11-25T01:00:01;25.58;;;14.25;;
75689;SDS011;64303;53.118;9.044;2022-11-25T01:02:27;28.75;;;16.77;;
75689;SDS011;64303;53.118;9.044;2022-11-25T01:04:54;34.40;;;14.45;;
75689;SDS011;64303;53.118;9.044;2022-11-25T01:07:21;29.08;;;14.13;;
75689;SDS011;64303;53.118;9.044;2022-11-25T01:09:49;26.92;;;13.95;;
75689;SDS011;64303;53.118;9.044;2022-11-25T01:12:15;25.90;;;14.35;;
75689;SDS011;64303;53.118;9.044;2022-11-25T01:14:43;23.90;;;13.75;;
75689;SDS011;64303;53.118;9.044;2022-11-25T01:17:12;20.98;;;13.57;;
75689;SDS011;64303;53.118;9.044;2022-11-25T01:19:39;26.45;;;14.43;;
75689;SDS011;64303;53.118;9.044;2022-11-25T01:22:06;26.30;;;13.07;;
75689;SDS011;64303;53.118;9.044;2022-11-25T01:24:33;24.77;;;12.57;;
75689;SDS011;64303;53.118;9.044;2022-11-25T01:27:01;31.05;;;14.18;;
75689;SDS011;64303;53.118;9.044;2022-11-25T01:29:28;22.38;;;11.10;;
75689;SDS011;64303;53.118;9.044;2022-11-25T01:31:54;24.88;;;12.38;;
75689;SDS011;64303;53.118;9.044;2022-11-25T01:34:23;21.25;;;14.35;;
75689;SDS011;64303;53.118;9.044;2022-11-25T01:36:50;25.90;;;12.50;;
75689;SDS011;64303;53.118;9.044;2022-11-25T01:39:18;24.02;;;13.48;;
75689;SDS011;64303;53.118;9.044;2022-11-25T01:41:45;23.42;;;10.25;;
75689;SDS011;64303;53.118;9.044;2022-11-25T01:44:15;22.38;;;11.43;;
75689;SDS011;64303;53.118;9.044;2022-11-25T01:46:46;22.23;;;11.98;;
75689;SDS011;64303;53.118;9.044;2022-11-25T01:49:17;21.23;;;12.15;;
75689;SDS011;64303;53.118;9.044;2022-11-25T01:54:13;19.90;;;10.85;;
75689;SDS011;64303;53.118;9.044;2022-11-25T01:56:43;15.13;;;10.27;;
75689;SDS011;64303;53.118;9.044;2022-11-25T01:59:13;19.85;;;9.77;;
75689;SDS011;64303;53.118;9.044;2022-11-25T02:01:40;17.50;;;11.00;;
75689;SDS011;64303;53.118;9.044;2022-11-25T02:04:07;22.65;;;11.82;;
75689;SDS011;64303;53.118;9.044;2022-11-25T02:06:35;14.07;;;10.82;;
75689;SDS011;64303;53.118;9.044;2022-11-25T02:09:05;17.33;;;9.27;;
75689;SDS011;64303;53.118;9.044;2022-11-25T02:11:34;18.45;;;11.35;;
75689;SDS011;64303;53.118;9.044;2022-11-25T02:14:04;13.80;;;10.35;;
75689;SDS011;64303;53.118;9.044;2022-11-25T02:16:32;19.63;;;10.85;;
75689;SDS011;64303;53.118;9.044;2022-11-25T02:18:59;21.42;;;11.30;;
75689;SDS011;64303;53.118;9.044;2022-11-25T02:21:30;23.00;;;10.82;;
75689;SDS011;64303;53.118;9.044;2022-11-25T02:24:03;12.63;;;8.93;;
75689;SDS011;64303;53.118;9.044;2022-11-25T02:26:37;22.85;;;8.40;;
75689;SDS011;64303;53.118;9.044;2022-11-25T02:29:06;16.85;;;11.80;;
75689;SDS011;64303;53.118;9.044;2022-11-25T02:31:32;14.38;;;11.85;;
75689;SDS011;64303;53.118;9.044;2022-11-25T02:33:59;22.20;;;11.18;;
75689;SDS011;64303;53.118;9.044;2022-11-25T02:36:26;25.13;;;9.43;;
75689;SDS011;64303;53.118;9.044;2022-11-25T02:38:55;18.15;;;10.05;;
75689;SDS011;64303;53.118;9.044;2022-11-25T02:41:25;19.17;;;12.27;;
75689;SDS011;64303;53.118;9.044;2022-11-25T02:43:59;21.92;;;9.98;;
75689;SDS011;64303;53.118;9.044;2022-11-25T02:46:27;17.40;;;8.77;;
75689;SDS011;64303;53.118;9.044;2022-11-25T02:48:55;16.40;;;10.80;;
75689;SDS011;64303;53.118;9.044;2022-11-25T02:53:50;15.98;;;10.77;;
75689;SDS011;64303;53.118;9.044;2022-11-25T02:56:19;15.88;;;9.90;;
75689;SDS011;64303;53.118;9.044;2022-11-25T02:58:47;13.38;;;10.73;;
75689;SDS011;64303;53.118;9.044;2022-11-25T03:01:15;13.93;;;12.50;;
75689;SDS011;64303;53.118;9.044;2022-11-25T03:06:08;12.38;;;9.27;;
75689;SDS011;64303;53.118;9.044;2022-11-25T03:08:36;14.93;;;8.15;;
75689;SDS011;64303;53.118;9.044;2022-11-25T03:11:06;14.93;;;9.35;;
75689;SDS011;64303;53.118;9.044;2022-11-25T03:13:33;13.35;;;11.10;;
75689;SDS011;64303;53.118;9.044;2022-11-25T03:16:00;17.13;;;8.32;;
75689;SDS011;64303;53.118;9.044;2022-11-25T03:18:28;17.05;;;8.35;;
75689;SDS011;64303;53.118;9.044;2022-11-25T03:20:55;13.15;;;9.88;;
75689;SDS011;64303;53.118;9.044;2022-11-25T03:23:23;11.55;;;9.20;;
75689;SDS011;64303;53.118;9.044;2022-11-25T03:28:18;13.35;;;8.43;;
75689;SDS011;64303;53.118;9.044;2022-11-25T03:30:47;14.45;;;8.52;;
75689;SDS011;64303;53.118;9.044;2022-11-25T03:33:14;14.07;;;9.07;;
75689;SDS011;64303;53.118;9.044;2022-11-25T03:35:42;17.45;;;8.35;;
75689;SDS011;64303;53.118;9.044;2022-11-25T03:38:09;10.45;;;7.40;;
75689;SDS011;64303;53.118;9.044;2022-11-25T03:40:36;15.93;;;10.40;;
75689;SDS011;64303;53.118;9.044;2022-11-25T03:43:03;13.38;;;9.38;;
75689;SDS011;64303;53.118;9.044;2022-11-25T03:45:30;14.98;;;9.93;;
75689;SDS011;64303;53.118;9.044;2022-11-25T03:47:59;10.07;;;7.55;;
75689;SDS011;64303;53.118;9.044;2022-11-25T03:50:26;12.80;;;8.10;;
75689;SDS011;64303;53.118;9.044;2022-11-25T03:52:54;16.13;;;9.45;;
75689;SDS011;64303;53.118;9.044;2022-11-25T03:55:21;17.25;;;8.95;;
75689;SDS011;64303;53.118;9.044;2022-11-25T03:57:49;12.52;;;8.68;;
75689;SDS011;64303;53.118;9.044;2022-11-25T04:00:16;12.43;;;8.25;;
75689;SDS011;64303;53.118;9.044;2022-11-25T04:02:43;11.93;;;7.97;;
75689;SDS011;64303;53.118;9.044;2022-11-25T04:05:12;15.55;;;7.47;;
75689;SDS011;64303;53.118;9.044;2022-11-25T04:07:39;10.93;;;7.15;;
75689;SDS011;64303;53.118;9.044;2022-11-25T04:10:08;9.40;;;6.50;;
75689;SDS011;64303;53.118;9.044;2022-11-25T04:12:36;11.82;;;6.47;;
75689;SDS011;64303;53.118;9.044;2022-11-25T04:15:14;12.18;;;7.38;;
75689;SDS011;64303;53.118;9.044;2022-11-25T04:17:42;12.38;;;7.72;;
75689;SDS011;64303;53.118;9.044;2022-11-25T04:20:09;10.48;;;8.40;;
75689;SDS011;64303;53.118;9.044;2022-11-25T04:22:40;9.40;;;8.23;;
75689;SDS011;64303;53.118;9.044;2022-11-25T04:25:09;12.48;;;7.38;;
75689;SDS011;64303;53.118;9.044;2022-11-25T04:27:36;9.57;;;7.78;;
75689;SDS011;64303;53.118;9.044;2022-11-25T04:30:04;11.65;;;6.45;;
75689;SDS011;64303;53.118;9.044;2022-11-25T04:32:35;10.45;;;6.78;;
75689;SDS011;64303;53.118;9.044;2022-11-25T04:35:03;12.88;;;6.20;;
75689;SDS011;64303;53.118;9.044;2022-11-25T04:37:32;13.95;;;9.60;;
75689;SDS011;64303;53.118;9.044;2022-11-25T04:39:58;12.57;;;7.20;;
75689;SDS011;64303;53.118;9.044;2022-11-25T04:42:27;8.88;;;5.88;;
75689;SDS011;64303;53.118;9.044;2022-11-25T04:44:58;10.70;;;6.60;;
75689;SDS011;64303;53.118;9.044;2022-11-25T04:47:26;7.80;;;6.60;;
75689;SDS011;64303;53.118;9.044;2022-11-25T04:49:53;9.80;;;8.88;;
75689;SDS011;64303;53.118;9.044;2022-11-25T04:52:21;10.65;;;7.05;;
75689;SDS011;64303;53.118;9.044;2022-11-25T04:54:47;9.27;;;6.93;;
75689;SDS011;64303;53.118;9.044;2022-11-25T04:57:14;7.57;;;5.53;;
75689;SDS011;64303;53.118;9.044;2022-11-25T04:59:44;14.50;;;6.25;;
75689;SDS011;64303;53.118;9.044;2022-11-25T05:02:13;10.32;;;8.88;;
75689;SDS011;64303;53.118;9.044;2022-11-25T05:04:44;10.27;;;6.40;;
75689;SDS011;64303;53.118;9.044;2022-11-25T05:07:13;9.07;;;5.93;;
75689;SDS011;64303;53.118;9.044;2022-11-25T05:09:42;9.30;;;6.95;;
75689;SDS011;64303;53.118;9.044;2022-11-25T05:12:18;11.93;;;6.30;;
75689;SDS011;64303;53.118;9.044;2022-11-25T05:14:47;9.57;;;6.60;;
75689;SDS011;64303;53.118;9.044;2022-11-25T05:17:15;9.68;;;5.85;;
75689;SDS011;64303;53.118;9.044;2022-11-25T05:22:11;14.20;;;6.70;;
75689;SDS011;64303;53.118;9.044;2022-11-25T05:24:39;10.15;;;5.68;;
75689;SDS011;64303;53.118;9.044;2022-11-25T05:27:06;6.70;;;5.43;;
75689;SDS011;64303;53.118;9.044;2022-11-25T05:29:33;8.98;;;5.90;;
75689;SDS011;64303;53.118;9.044;2022-11-25T05:32:01;6.53;;;5.43;;
75689;SDS011;64303;53.118;9.044;2022-11-25T05:36:55;7.28;;;5.15;;
75689;SDS011;64303;53.118;9.044;2022-11-25T05:39:21;8.23;;;5.85;;
75689;SDS011;64303;53.118;9.044;2022-11-25T05:42:07;9.85;;;5.07;;
75689;SDS011;64303;53.118;9.044;2022-11-25T05:44:35;8.18;;;5.70;;
75689;SDS011;64303;53.118;9.044;2022-11-25T05:47:04;4.25;;;3.80;;
75689;SDS011;64303;53.118;9.044;2022-11-25T05:49:31;8.25;;;4.57;;
75689;SDS011;64303;53.118;9.044;2022-11-25T05:51:58;8.90;;;4.88;;
75689;SDS011;64303;53.118;9.044;2022-11-25T05:54:30;6.05;;;5.53;;
75689;SDS011;64303;53.118;9.044;2022-11-25T05:56:57;9.18;;;5.68;;
75689;SDS011;64303;53.118;9.044;2022-11-25T05:59:59;12.48;;;5.18;;
75689;SDS011;64303;53.118;9.044;2022-11-25T06:02:43;8.20;;;4.28;;
75689;SDS011;64303;53.118;9.044;2022-11-25T06:05:12;12.40;;;5.28;;
75689;SDS011;64303;53.118;9.044;2022-11-25T06:07:39;12.95;;;7.25;;
75689;SDS011;64303;53.118;9.044;2022-11-25T06:10:06;8.55;;;5.40;;
75689;SDS011;64303;53.118;9.044;2022-11-25T06:12:36;9.75;;;7.18;;
75689;SDS011;64303;53.118;9.044;2022-11-25T06:15:04;10.50;;;6.40;;
75689;SDS011;64303;53.118;9.044;2022-11-25T06:17:33;11.30;;;5.45;;
75689;SDS011;64303;53.118;9.044;2022-11-25T06:20:10;8.45;;;5.35;;
75689;SDS011;64303;53.118;9.044;2022-11-25T06:22:38;8.55;;;5.43;;
75689;SDS011;64303;53.118;9.044;2022-11-25T06:25:05;18.73;;;5.15;;
75689;SDS011;64303;53.118;9.044;2022-11-25T06:27:34;8.10;;;4.57;;
75689;SDS011;64303;53.118;9.044;2022-11-25T06:30:02;7.32;;;6.50;;
75689;SDS011;64303;53.118;9.044;2022-11-25T06:32:29;8.82;;;7.03;;
75689;SDS011;64303;53.118;9.044;2022-11-25T06:35:00;11.15;;;6.65;;
75689;SDS011;64303;53.118;9.044;2022-11-25T06:37:40;11.35;;;5.70;;
75689;SDS011;64303;53.118;9.044;2022-11-25T06:40:07;8.90;;;5.85;;
75689;SDS011;64303;53.118;9.044;2022-11-25T06:42:34;13.85;;;8.65;;
75689;SDS011;64303;53.118;9.044;2022-11-25T06:45:02;7.93;;;5.28;;
75689;SDS011;64303;53.118;9.044;2022-11-25T06:47:30;11.80;;;6.70;;
75689;SDS011;64303;53.118;9.044;2022-11-25T06:49:56;6.28;;;4.38;;
75689;SDS011;64303;53.118;9.044;2022-11-25T06:52:23;11.73;;;5.30;;
75689;SDS011;64303;53.118;9.044;2022-11-25T06:54:51;10.35;;;7.85;;
75689;SDS011;64303;53.118;9.044;2022-11-25T06:57:18;10.38;;;7.55;;
75689;SDS011;64303;53.118;9.044;2022-11-25T06:59:45;9.75;;;4.90;;
75689;SDS011;64303;53.118;9.044;2022-11-25T07:02:11;7.25;;;6.03;;
75689;SDS011;64303;53.118;9.044;2022-11-25T07:04:38;12.65;;;7.10;;
75689;SDS011;64303;53.118;9.044;2022-11-25T07:07:05;10.63;;;3.67;;
75689;SDS011;64303;53.118;9.044;2022-11-25T07:09:32;11.02;;;5.53;;
75689;SDS011;64303;53.118;9.044;2022-11-25T07:12:00;9.93;;;5.43;;
75689;SDS011;64303;53.118;9.044;2022-11-25T07:14:27;13.15;;;5.22;;
75689;SDS011;64303;53.118;9.044;2022-11-25T07:16:54;7.10;;;6.40;;
75689;SDS011;64303;53.118;9.044;2022-11-25T07:19:20;9.35;;;7.47;;
75689;SDS011;64303;53.118;9.044;2022-11-25T07:21:47;9.70;;;5.80;;
75689;SDS011;64303;53.118;9.044;2022-11-25T07:24:14;10.23;;;5.75;;
75689;SDS011;64303;53.118;9.044;2022-11-25T07:26:42;12.88;;;6.32;;
75689;SDS011;64303;53.118;9.044;2022-11-25T07:29:11;12.48;;;6.35;;
75689;SDS011;64303;53.118;9.044;2022-11-25T07:31:39;9.82;;;6.75;;
75689;SDS011;64303;53.118;9.044;2022-11-25T07:34:09;10.82;;;5.70;;
75689;SDS011;64303;53.118;9.044;2022-11-25T07:36:38;8.73;;;5.68;;
75689;SDS011;64303;53.118;9.044;2022-11-25T07:39:05;10.45;;;6.38;;
75689;SDS011;64303;53.118;9.044;2022-11-25T07:41:34;11.88;;;5.95;;
75689;SDS011;64303;53.118;9.044;2022-11-25T07:44:02;9.02;;;6.53;;
75689;SDS011;64303;53.118;9.044;2022-11-25T07:46:43;11.98;;;7.15;;
75689;SDS011;64303;53.118;9.044;2022-11-25T07:49:12;12.23;;;6.15;;
75689;SDS011;64303;53.118;9.044;2022-11-25T07:51:40;9.43;;;4.28;;
75689;SDS011;64303;53.118;9.044;2022-11-25T07:54:08;6.95;;;4.97;;
75689;SDS011;64303;53.118;9.044;2022-11-25T07:56:37;9.18;;;4.88;;
75689;SDS011;64303;53.118;9.044;2022-11-25T07:59:05;9.85;;;6.85;;
75689;SDS011;64303;53.118;9.044;2022-11-25T08:01:33;15.20;;;6.47;;
75689;SDS011;64303;53.118;9.044;2022-11-25T08:04:01;12.15;;;6.47;;
75689;SDS011;64303;53.118;9.044;2022-11-25T08:06:28;14.25;;;6.88;;
75689;SDS011;64303;53.118;9.044;2022-11-25T08:08:55;15.38;;;6.35;;
75689;SDS011;64303;53.118;9.044;2022-11-25T08:11:23;11.77;;;5.80;;
75689;SDS011;64303;53.118;9.044;2022-11-25T08:13:50;10.40;;;6.88;;
75689;SDS011;64303;53.118;9.044;2022-11-25T08:16:18;7.85;;;7.07;;
75689;SDS011;64303;53.118;9.044;2022-11-25T08:18:46;8.23;;;5.50;;
75689;SDS011;64303;53.118;9.044;2022-11-25T08:21:15;12.38;;;6.43;;
75689;SDS011;64303;53.118;9.044;2022-11-25T08:23:42;10.55;;;5.20;;
75689;SDS011;64303;53.118;9.044;2022-11-25T08:26:12;9.77;;;5.47;;
75689;SDS011;64303;53.118;9.044;2022-11-25T08:28:40;13.23;;;6.10;;
75689;SDS011;64303;53.118;9.044;2022-11-25T08:31:09;13.50;;;6.00;;
75689;SDS011;64303;53.118;9.044;2022-11-25T08:33:37;10.55;;;4.80;;
75689;SDS011;64303;53.118;9.044;2022-11-25T08:36:04;12.90;;;6.65;;
75689;SDS011;64303;53.118;9.044;2022-11-25T08:38:33;8.95;;;7.85;;
75689;SDS011;64303;53.118;9.044;2022-11-25T08:40:59;12.20;;;6.63;;
75689;SDS011;64303;53.118;9.044;2022-11-25T08:43:27;9.15;;;6.47;;
75689;SDS011;64303;53.118;9.044;2022-11-25T08:45:53;8.40;;;4.90;;
75689;SDS011;64303;53.118;9.044;2022-11-25T08:48:20;11.05;;;6.18;;
75689;SDS011;64303;53.118;9.044;2022-11-25T08:50:49;10.32;;;7.80;;
75689;SDS011;64303;53.118;9.044;2022-11-25T08:53:17;9.02;;;7.10;;
75689;SDS011;64303;53.118;9.044;2022-11-25T08:58:13;12.05;;;7.13;;
75689;SDS011;64303;53.118;9.044;2022-11-25T09:00:40;10.95;;;7.57;;
75689;SDS011;64303;53.118;9.044;2022-11-25T09:08:04;8.73;;;4.75;;
75689;SDS011;64303;53.118;9.044;2022-11-25T09:10:32;11.05;;;7.05;;
75689;SDS011;64303;53.118;9.044;2022-11-25T09:13:00;14.55;;;5.93;;
75689;SDS011;64303;53.118;9.044;2022-11-25T09:15:27;11.13;;;6.47;;
75689;SDS011;64303;53.118;9.044;2022-11-25T09:17:57;10.40;;;8.45;;
75689;SDS011;64303;53.118;9.044;2022-11-25T09:20:25;14.88;;;8.82;;
75689;SDS011;64303;53.118;9.044;2022-11-25T09:22:52;10.07;;;7.30;;
75689;SDS011;64303;53.118;9.044;2022-11-25T09:25:19;9.35;;;7.15;;
75689;SDS011;64303;53.118;9.044;2022-11-25T09:27:46;8.85;;;5.55;;
75689;SDS011;64303;53.118;9.044;2022-11-25T09:30:14;13.40;;;6.07;;
75689;SDS011;64303;53.118;9.044;2022-11-25T09:32:42;9.80;;;5.30;;
75689;SDS011;64303;53.118;9.044;2022-11-25T09:35:09;9.30;;;6.25;;
75689;SDS011;64303;53.118;9.044;2022-11-25T09:37:35;11.25;;;6.97;;
75689;SDS011;64303;53.118;9.044;2022-11-25T09:40:02;16.35;;;7.28;;
75689;SDS011;64303;53.118;9.044;2022-11-25T09:42:33;11.30;;;6.45;;
75689;SDS011;64303;53.118;9.044;2022-11-25T09:45:45;11.00;;;6.07;;
75689;SDS011;64303;53.118;9.044;2022-11-25T09:48:50;11.52;;;7.53;;
75689;SDS011;64303;53.118;9.044;2022-11-25T09:51:20;7.28;;;6.63;;
75689;SDS011;64303;53.118;9.044;2022-11-25T09:53:50;7.25;;;5.95;;
75689;SDS011;64303;53.118;9.044;2022-11-25T09:56:24;9.15;;;5.88;;
75689;SDS011;64303;53.118;9.044;2022-11-25T09:58:55;12.43;;;6.95;;
75689;SDS011;64303;53.118;9.044;2022-11-25T10:01:27;9.30;;;6.40;;
75689;SDS011;64303;53.118;9.044;2022-11-25T10:03:57;9.38;;;6.75;;
75689;SDS011;64303;53.118;9.044;2022-11-25T10:06:27;16.35;;;6.18;;
75689;SDS011;64303;53.118;9.044;2022-11-25T10:08:55;13.68;;;7.82;;
75689;SDS011;64303;53.118;9.044;2022-11-25T10:11:28;11.45;;;6.32;;
75689;SDS011;64303;53.118;9.044;2022-11-25T10:14:01;12.93;;;4.80;;
75689;SDS011;64303;53.118;9.044;2022-11-25T10:16:34;12.25;;;7.60;;
75689;SDS011;64303;53.118;9.044;2022-11-25T10:19:05;11.68;;;5.85;;
75689;SDS011;64303;53.118;9.044;2022-11-25T10:21:39;12.68;;;6.90;;
75689;SDS011;64303;53.118;9.044;2022-11-25T10:24:07;14.30;;;9.07;;
75689;SDS011;64303;53.118;9.044;2022-11-25T10:26:40;16.60;;;6.63;;
75689;SDS011;64303;53.118;9.044;2022-11-25T10:29:16;12.38;;;6.82;;
75689;SDS011;64303;53.118;9.044;2022-11-25T10:31:49;14.35;;;10.50;;
75689;SDS011;64303;53.118;9.044;2022-11-25T10:34:20;13.23;;;7.05;;
75689;SDS011;64303;53.118;9.044;2022-11-25T10:36:50;8.32;;;6.18;;
75689;SDS011;64303;53.118;9.044;2022-11-25T10:39:18;12.43;;;6.80;;
75689;SDS011;64303;53.118;9.044;2022-11-25T10:41:49;8.48;;;6.97;;
75689;SDS011;64303;53.118;9.044;2022-11-25T10:44:23;12.70;;;5.97;;
75689;SDS011;64303;53.118;9.044;2022-11-25T10:46:54;9.93;;;8.50;;
75689;SDS011;64303;53.118;9.044;2022-11-25T10:49:33;12.82;;;6.95;;
75689;SDS011;64303;53.118;9.044;2022-11-25T10:52:05;11.32;;;7.93;;
75689;SDS011;64303;53.118;9.044;2022-11-25T10:54:35;8.50;;;5.78;;
75689;SDS011;64303;53.118;9.044;2022-11-25T10:57:03;10.43;;;6.78;;
75689;SDS011;64303;53.118;9.044;2022-11-25T10:59:41;15.15;;;7.85;;
75689;SDS011;64303;53.118;9.044;2022-11-25T11:02:22;11.02;;;6.50;;
75689;SDS011;64303;53.118;9.044;2022-11-25T11:04:52;11.45;;;6.07;;
75689;SDS011;64303;53.118;9.044;2022-11-25T11:07:20;13.70;;;6.07;;
75689;SDS011;64303;53.118;9.044;2022-11-25T11:09:47;9.75;;;8.77;;
75689;SDS011;64303;53.118;9.044;2022-11-25T11:12:17;15.13;;;6.72;;
75689;SDS011;64303;53.118;9.044;2022-11-25T11:14:46;12.70;;;8.13;;
75689;SDS011;64303;53.118;9.044;2022-11-25T11:17:29;10.57;;;6.75;;
75689;SDS011;64303;53.118;9.044;2022-11-25T11:20:02;9.88;;;5.90;;
75689;SDS011;64303;53.118;9.044;2022-11-25T11:22:44;16.27;;;6.35;;
75689;SDS011;64303;53.118;9.044;2022-11-25T11:25:20;10.90;;;6.53;;
75689;SDS011;64303;53.118;9.044;2022-11-25T11:27:51;8.80;;;7.65;;
75689;SDS011;64303;53.118;9.044;2022-11-25T11:30:18;11.93;;;7.13;;
75689;SDS011;64303;53.118;9.044;2022-11-25T11:32:55;12.13;;;7.18;;
75689;SDS011;64303;53.118;9.044;2022-11-25T11:35:24;7.43;;;6.43;;
75689;SDS011;64303;53.118;9.044;2022-11-25T11:37:57;11.73;;;6.82;;
75689;SDS011;64303;53.118;9.044;2022-11-25T11:40:30;11.35;;;7.18;;
75689;SDS011;64303;53.118;9.044;2022-11-25T11:43:10;9.55;;;6.63;;
75689;SDS011;64303;53.118;9.044;2022-11-25T11:45:50;11.70;;;8.23;;
75689;SDS011;64303;53.118;9.044;2022-11-25T11:48:26;12.90;;;6.78;;
75689;SDS011;64303;53.118;9.044;2022-11-25T11:51:00;12.25;;;7.60;;
75689;SDS011;64303;53.118;9.044;2022-11-25T11:53:40;15.23;;;8.32;;
75689;SDS011;64303;53.118;9.044;2022-11-25T11:56:10;14.75;;;12.82;;
75689;SDS011;64303;53.118;9.044;2022-11-25T11:58:43;11.20;;;6.50;;
75689;SDS011;64303;53.118;9.044;2022-11-25T12:01:28;12.35;;;7.55;;
75689;SDS011;64303;53.118;9.044;2022-11-25T12:04:06;12.18;;;8.40;;
75689;SDS011;64303;53.118;9.044;2022-11-25T12:06:39;14.57;;;8.30;;
75689;SDS011;64303;53.118;9.044;2022-11-25T12:09:09;16.10;;;8.02;;
75689;SDS011;64303;53.118;9.044;2022-11-25T12:11:39;12.55;;;6.75;;
75689;SDS011;64303;53.118;9.044;2022-11-25T12:14:09;9.27;;;7.93;;
75689;SDS011;64303;53.118;9.044;2022-11-25T12:16:39;11.15;;;6.82;;
75689;SDS011;64303;53.118;9.044;2022-11-25T12:19:12;11.85;;;5.78;;
75689;SDS011;64303;53.118;9.044;2022-11-25T12:21:43;12.40;;;8.70;;
75689;SDS011;64303;53.118;9.044;2022-11-25T12:26:45;11.73;;;7.80;;
75689;SDS011;64303;53.118;9.044;2022-11-25T12:29:17;11.02;;;8.93;;
75689;SDS011;64303;53.118;9.044;2022-11-25T12:31:46;11.02;;;7.40;;
75689;SDS011;64303;53.118;9.044;2022-11-25T12:34:18;13.98;;;11.07;;
75689;SDS011;64303;53.118;9.044;2022-11-25T12:36:47;13.73;;;7.70;;
75689;SDS011;64303;53.118;9.044;2022-11-25T12:39:18;17.75;;;7.95;;
75689;SDS011;64303;53.118;9.044;2022-11-25T12:41:48;9.68;;;6.38;;
75689;SDS011;64303;53.118;9.044;2022-11-25T12:44:17;12.05;;;8.27;;
75689;SDS011;64303;53.118;9.044;2022-11-25T12:46:46;13.23;;;5.53;;
75689;SDS011;64303;53.118;9.044;2022-11-25T12:49:15;13.50;;;7.88;;
75689;SDS011;64303;53.118;9.044;2022-11-25T12:51:51;14.18;;;7.30;;
75689;SDS011;64303;53.118;9.044;2022-11-25T12:54:31;14.52;;;6.97;;
75689;SDS011;64303;53.118;9.044;2022-11-25T12:57:17;13.50;;;8.43;;
75689;SDS011;64303;53.118;9.044;2022-11-25T13:00:03;10.93;;;7.35;;
75689;SDS011;64303;53.118;9.044;2022-11-25T13:02:44;15.15;;;8.82;;
75689;SDS011;64303;53.118;9.044;2022-11-25T13:05:37;12.45;;;6.65;;
75689;SDS011;64303;53.118;9.044;2022-11-25T13:08:15;12.68;;;7.93;;
75689;SDS011;64303;53.118;9.044;2022-11-25T13:10:55;13.82;;;9.57;;
75689;SDS011;64303;53.118;9.044;2022-11-25T13:13:31;14.98;;;8.20;;
75689;SDS011;64303;53.118;9.044;2022-11-25T13:16:04;15.55;;;8.30;;
75689;SDS011;64303;53.118;9.044;2022-11-25T13:18:31;17.48;;;10.88;;
75689;SDS011;64303;53.118;9.044;2022-11-25T13:21:05;13.75;;;8.98;;
75689;SDS011;64303;53.118;9.044;2022-11-25T13:23:41;19.40;;;10.60;;
75689;SDS011;64303;53.118;9.044;2022-11-25T13:26:32;20.83;;;11.73;;
75689;SDS011;64303;53.118;9.044;2022-11-25T13:32:25;18.05;;;12.23;;
75689;SDS011;64303;53.118;9.044;2022-11-25T13:41:19;21.10;;;11.88;;
75689;SDS011;64303;53.118;9.044;2022-11-25T13:43:51;19.98;;;11.82;;
75689;SDS011;64303;53.118;9.044;2022-11-25T13:46:26;17.95;;;12.30;;
75689;SDS011;64303;53.118;9.044;2022-11-25T13:48:54;25.83;;;11.32;;
75689;SDS011;64303;53.118;9.044;2022-11-25T13:51:21;16.67;;;13.05;;
75689;SDS011;64303;53.118;9.044;2022-11-25T13:53:49;18.77;;;12.38;;
75689;SDS011;64303;53.118;9.044;2022-11-25T13:56:24;20.00;;;11.98;;
75689;SDS011;64303;53.118;9.044;2022-11-25T14:04:17;21.60;;;11.25;;
75689;SDS011;64303;53.118;9.044;2022-11-25T14:07:05;18.02;;;11.52;;
75689;SDS011;64303;53.118;9.044;2022-11-25T14:09:41;20.00;;;13.27;;
75689;SDS011;64303;53.118;9.044;2022-11-25T14:15:09;22.33;;;10.93;;
75689;SDS011;64303;53.118;9.044;2022-11-25T14:20:40;18.35;;;11.60;;
75689;SDS011;64303;53.118;9.044;2022-11-25T14:26:12;17.10;;;10.95;;
75689;SDS011;64303;53.118;9.044;2022-11-25T14:28:52;22.65;;;12.65;;
75689;SDS011;64303;53.118;9.044;2022-11-25T14:31:23;21.42;;;12.07;;
75689;SDS011;64303;53.118;9.044;2022-11-25T14:33:56;24.05;;;13.35;;
75689;SDS011;64303;53.118;9.044;2022-11-25T14:36:26;18.75;;;12.40;;
75689;SDS011;64303;53.118;9.044;2022-11-25T14:38:56;22.30;;;11.45;;
75689;SDS011;64303;53.118;9.044;2022-11-25T14:41:26;19.00;;;12.27;;
75689;SDS011;64303;53.118;9.044;2022-11-25T14:43:56;20.50;;;12.82;;
75689;SDS011;64303;53.118;9.044;2022-11-25T14:46:26;17.67;;;11.18;;
75689;SDS011;64303;53.118;9.044;2022-11-25T14:48:53;22.42;;;12.43;;
75689;SDS011;64303;53.118;9.044;2022-11-25T14:53:48;21.30;;;14.27;;
75689;SDS011;64303;53.118;9.044;2022-11-25T14:56:20;25.15;;;15.30;;
75689;SDS011;64303;53.118;9.044;2022-11-25T14:58:48;18.65;;;11.25;;
75689;SDS011;64303;53.118;9.044;2022-11-25T15:01:18;22.70;;;13.82;;
75689;SDS011;64303;53.118;9.044;2022-11-25T15:03:46;23.95;;;13.32;;
75689;SDS011;64303;53.118;9.044;2022-11-25T15:06:13;21.80;;;12.35;;
75689;SDS011;64303;53.118;9.044;2022-11-25T15:08:42;15.45;;;11.68;;
75689;SDS011;64303;53.118;9.044;2022-11-25T15:11:11;20.70;;;12.32;;
75689;SDS011;64303;53.118;9.044;2022-11-25T15:13:40;19.05;;;12.25;;
75689;SDS011;64303;53.118;9.044;2022-11-25T15:16:09;21.85;;;13.00;;
75689;SDS011;64303;53.118;9.044;2022-11-25T15:18:45;19.42;;;13.35;;
75689;SDS011;64303;53.118;9.044;2022-11-25T15:21:14;15.93;;;10.95;;
75689;SDS011;64303;53.118;9.044;2022-11-25T15:23:41;19.48;;;12.27;;
75689;SDS011;64303;53.118;9.044;2022-11-25T15:26:15;18.45;;;13.23;;
75689;SDS011;64303;53.118;9.044;2022-11-25T15:28:44;17.85;;;14.50;;
75689;SDS011;64303;53.118;9.044;2022-11-25T15:31:14;20.67;;;13.23;;
75689;SDS011;64303;53.118;9.044;2022-11-25T15:33:44;19.63;;;14.90;;
75689;SDS011;64303;53.118;9.044;2022-11-25T15:36:11;25.73;;;14.52;;
75689;SDS011;64303;53.118;9.044;2022-11-25T15:38:39;25.33;;;14.43;;
75689;SDS011;64303;53.118;9.044;2022-11-25T15:41:14;21.63;;;14.00;;
75689;SDS011;64303;53.118;9.044;2022-11-25T15:43:43;21.08;;;15.20;;